Time;durP1;ratioP1;P1;durP2;ratioP2;P2;SDS_P1;SDS_P2;PMS_P1;PMS_P2;Temp;Humidity;BMP_temperature;BMP_pressure;BME280_temperature;BME280_humidity;BME280_pressure;Samples;Min_cycle;Max_cycle;Signal;HPM_P1;HPM_P2
2023/08/01 00:01:52;;;;;;;5.90;2.95;;;;;;;17.53;100.00;99216.41;4830304;29;20145;-70
2023/08/01 00:04:55;;;;;;;5.55;2.22;;;;;;;17.43;100.00;99205.13;4831319;29;20634;-70
2023/08/01 00:07:59;;;;;;;4.65;2.35;;;;;;;17.38;100.00;99197.66;4838127;29;20049;-70
2023/08/01 00:11:02;;;;;;;5.18;2.35;;;;;;;17.46;100.00;99193.44;4838701;29;20080;-70
2023/08/01 00:14:06;;;;;;;5.80;2.20;;;;;;;17.39;100.00;99196.69;4837950;29;20061;-70
2023/08/01 00:17:10;;;;;;;4.43;2.30;;;;;;;17.42;100.00;99188.47;4835375;29;20041;-70
2023/08/01 00:20:13;;;;;;;5.03;2.40;;;;;;;17.43;100.00;99174.25;4836576;29;20049;-70
2023/08/01 00:23:17;;;;;;;3.70;2.05;;;;;;;17.51;100.00;99162.06;4837024;29;20049;-70
2023/08/01 00:26:20;;;;;;;6.20;2.58;;;;;;;17.56;100.00;99157.13;4838131;29;20084;-70
2023/08/01 00:29:23;;;;;;;8.63;2.15;;;;;;;17.54;100.00;99156.47;4838534;29;20091;-70
2023/08/01 00:32:26;;;;;;;4.95;2.20;;;;;;;17.53;100.00;99149.53;4834713;29;20099;-70
2023/08/01 00:35:30;;;;;;;2.83;1.48;;;;;;;17.38;100.00;99144.81;4836569;29;20080;-70
2023/08/01 00:38:33;;;;;;;4.50;2.10;;;;;;;17.44;100.00;99138.91;4837843;29;20065;-70
2023/08/01 00:41:40;;;;;;;3.00;1.45;;;;;;;17.34;100.00;99135.56;4837756;29;20057;-70
2023/08/01 00:44:43;;;;;;;4.57;2.00;;;;;;;17.39;100.00;99128.00;4836473;29;20566;-70
2023/08/01 00:47:46;;;;;;;4.20;1.80;;;;;;;17.53;100.00;99141.59;4835912;29;20053;-70
2023/08/01 00:50:50;;;;;;;5.28;1.77;;;;;;;17.56;100.00;99136.81;4835575;29;20065;-70
2023/08/01 00:53:53;;;;;;;3.00;1.55;;;;;;;17.57;100.00;99132.34;4837690;29;20130;-70
2023/08/01 00:56:56;;;;;;;5.25;1.80;;;;;;;17.63;100.00;99123.78;4837213;29;20562;-70
2023/08/01 01:00:00;;;;;;;5.22;1.45;;;;;;;17.68;100.00;99100.38;4826184;29;20710;-70
2023/08/01 01:03:03;;;;;;;2.80;1.30;;;;;;;17.72;100.00;99088.47;4835455;29;20055;-70
2023/08/01 01:06:15;;;;;;;4.82;1.40;;;;;;;17.69;100.00;99094.06;4834235;29;20046;-70
2023/08/01 01:09:21;;;;;;;2.40;1.20;;;;;;;17.59;100.00;99093.41;4837324;29;20045;-70
2023/08/01 01:12:24;;;;;;;5.70;1.42;;;;;;;17.56;100.00;99099.81;4833451;29;20095;-70
2023/08/01 01:15:28;;;;;;;5.97;1.50;;;;;;;17.62;100.00;99098.34;4835956;29;20095;-70
2023/08/01 01:18:31;;;;;;;3.35;1.38;;;;;;;17.62;100.00;99093.06;4831315;29;20111;-69
2023/08/01 01:21:37;;;;;;;4.40;1.63;;;;;;;17.57;100.00;99079.50;4834609;29;20049;-70
2023/08/01 01:24:42;;;;;;;5.13;2.10;;;;;;;17.63;100.00;99068.28;4834661;29;20092;-70
2023/08/01 01:27:47;;;;;;;7.60;1.90;;;;;;;17.59;100.00;99053.75;4819609;29;20053;-70
2023/08/01 01:30:53;;;;;;;7.15;2.30;;;;;;;17.62;100.00;99048.97;4832326;29;20068;-70
2023/08/01 01:33:57;;;;;;;9.75;1.40;;;;;;;17.54;100.00;99042.81;4833876;29;20540;-70
2023/08/01 01:37:00;;;;;;;5.45;1.85;;;;;;;17.55;100.00;99047.09;4832067;29;20127;-70
2023/08/01 01:40:04;;;;;;;5.75;1.60;;;;;;;17.54;100.00;99048.09;4834215;29;20103;-71
2023/08/01 01:43:07;;;;;;;3.70;1.52;;;;;;;17.55;100.00;99039.19;4831436;29;20477;-71
2023/08/01 01:46:14;;;;;;;6.30;1.23;;;;;;;17.61;100.00;99035.88;4843649;29;20124;-70
2023/08/01 01:49:17;;;;;;;4.88;1.23;;;;;;;17.55;100.00;99020.69;4833448;29;20103;-71
2023/08/01 01:52:22;;;;;;;7.47;1.50;;;;;;;17.54;100.00;99017.22;4834137;29;20213;-70
2023/08/01 01:55:26;;;;;;;2.70;1.35;;;;;;;17.56;100.00;99017.06;4832014;29;20045;-70
2023/08/01 01:58:29;;;;;;;5.45;1.50;;;;;;;17.51;100.00;99006.13;4830513;29;20050;-70
2023/08/01 02:01:32;;;;;;;4.40;1.10;;;;;;;17.50;100.00;99001.84;4832942;29;20058;-70
2023/08/01 02:04:37;;;;;;;4.50;1.50;;;;;;;17.51;100.00;98983.19;4832100;29;20053;-70
2023/08/01 02:07:40;;;;;;;3.17;1.73;;;;;;;17.54;100.00;98979.38;4833879;29;20049;-71
2023/08/01 02:10:43;;;;;;;4.55;1.70;;;;;;;17.53;100.00;98965.34;4823091;29;20079;-71
2023/08/01 02:13:46;;;;;;;6.18;2.25;;;;;;;17.55;100.00;98958.09;4831458;29;20091;-71
2023/08/01 02:16:50;;;;;;;4.75;1.63;;;;;;;17.51;100.00;98945.38;4833361;29;20089;-71
2023/08/01 02:19:53;;;;;;;5.80;1.40;;;;;;;17.53;100.00;98946.84;4831939;29;20050;-71
2023/08/01 02:22:57;;;;;;;5.40;1.40;;;;;;;17.43;100.00;98940.91;4833018;29;20106;-71
2023/08/01 02:25:59;;;;;;;5.57;1.50;;;;;;;17.50;100.00;98941.91;4820611;29;20049;-70
2023/08/01 02:29:04;;;;;;;7.38;1.35;;;;;;;17.52;100.00;98944.41;4836476;29;20102;-70
2023/08/01 02:32:07;;;;;;;5.85;1.33;;;;;;;17.54;100.00;98942.41;4831460;29;20060;-71
2023/08/01 02:35:11;;;;;;;10.18;1.30;;;;;;;17.42;100.00;98945.38;4827277;29;20090;-71
2023/08/01 02:38:14;;;;;;;4.60;1.60;;;;;;;17.53;100.00;98951.31;4833751;29;20049;-70
2023/08/01 02:41:18;;;;;;;6.70;1.42;;;;;;;17.51;100.00;98937.44;4828166;29;20049;-71
2023/08/01 02:44:21;;;;;;;6.80;0.88;;;;;;;17.53;100.00;98925.72;4833298;29;20052;-71
2023/08/01 02:47:24;;;;;;;3.85;1.00;;;;;;;17.56;100.00;98921.94;4831887;29;20104;-71
2023/08/01 02:50:28;;;;;;;3.05;0.90;;;;;;;17.59;100.00;98921.59;4829969;29;20130;-70
2023/08/01 02:53:31;;;;;;;7.18;0.90;;;;;;;17.51;100.00;98926.88;4835207;29;20099;-71
2023/08/01 02:56:41;;;;;;;3.53;0.90;;;;;;;17.37;100.00;98929.16;4842289;29;20061;-70
2023/08/01 02:59:44;;;;;;;4.70;1.00;;;;;;;17.48;100.00;98922.72;4825720;29;20492;-70
2023/08/01 03:02:48;;;;;;;4.80;0.90;;;;;;;17.54;100.00;98927.34;4833610;29;20049;-70
2023/08/01 03:05:52;;;;;;;4.85;1.00;;;;;;;17.62;100.00;98926.56;4812817;29;20057;-71
2023/08/01 03:08:55;;;;;;;4.25;1.00;;;;;;;17.64;100.00;98928.06;4823307;29;20400;-71
2023/08/01 03:11:59;;;;;;;2.90;0.80;;;;;;;17.69;100.00;98909.03;4822155;29;20135;-71
2023/08/01 03:15:04;;;;;;;5.93;0.98;;;;;;;17.58;100.00;98882.94;4823216;29;20555;-71
2023/08/01 03:18:07;;;;;;;1.45;0.47;;;;;;;17.64;100.00;98885.75;4823170;29;20057;-71
2023/08/01 03:21:14;;;;;;;1.25;0.45;;;;;;;17.70;100.00;98878.97;4823146;29;20535;-71
2023/08/01 03:24:17;;;;;;;3.20;0.50;;;;;;;17.71;100.00;98877.16;4822633;29;20104;-71
2023/08/01 03:27:21;;;;;;;2.78;0.47;;;;;;;17.71;100.00;98874.50;4821995;29;20049;-71
2023/08/01 03:30:27;;;;;;;3.22;1.05;;;;;;;17.74;100.00;98882.94;4811277;29;20100;-71
2023/08/01 03:33:34;;;;;;;1.70;0.40;;;;;;;17.70;100.00;98889.53;4813693;29;20612;-71
2023/08/01 03:36:37;;;;;;;2.83;0.60;;;;;;;17.64;100.00;98906.06;4804064;29;20111;-71
2023/08/01 03:39:43;;;;;;;3.75;0.50;;;;;;;17.61;100.00;98912.53;4804177;29;20089;-71
2023/08/01 03:42:47;;;;;;;3.10;0.50;;;;;;;17.65;100.00;98905.91;4804354;29;20049;-71
2023/08/01 03:45:51;;;;;;;1.02;0.22;;;;;;;17.62;100.00;98908.88;4804073;29;20141;-71
2023/08/01 03:48:54;;;;;;;1.45;0.52;;;;;;;17.71;100.00;98890.38;4804173;29;20087;-71
2023/08/01 03:51:58;;;;;;;1.75;0.50;;;;;;;17.65;100.00;98897.16;4804156;29;20503;-71
2023/08/01 03:55:01;;;;;;;2.70;0.43;;;;;;;17.69;100.00;98903.75;4804125;29;20568;-71
2023/08/01 03:58:04;;;;;;;4.30;0.80;;;;;;;17.78;100.00;98880.84;4804176;29;20057;-71
2023/08/01 04:01:08;;;;;;;3.75;0.85;;;;;;;17.85;100.00;98895.03;4819528;29;20107;-71
2023/08/01 04:04:11;;;;;;;2.10;0.60;;;;;;;17.76;100.00;98899.44;4822403;29;20049;-70
2023/08/01 04:07:15;;;;;;;1.85;0.52;;;;;;;17.70;100.00;98878.97;4822246;29;20086;-71
2023/08/01 04:10:18;;;;;;;2.45;0.50;;;;;;;17.69;100.00;98879.16;4821927;29;20049;-71
2023/08/01 04:13:21;;;;;;;1.73;0.32;;;;;;;17.75;100.00;98871.38;4820643;29;20590;-71
2023/08/01 04:16:25;;;;;;;1.42;0.32;;;;;;;17.76;100.00;98875.66;4821421;29;20050;-71
2023/08/01 04:19:28;;;;;;;2.42;0.40;;;;;;;17.74;100.00;98875.03;4821125;29;20102;-71
2023/08/01 04:22:32;;;;;;;1.77;0.40;;;;;;;17.81;100.00;98875.22;4821469;29;20152;-70
2023/08/01 04:25:35;;;;;;;1.73;0.40;;;;;;;17.72;100.00;98871.72;4821442;29;20109;-70
2023/08/01 04:28:39;;;;;;;7.30;0.55;;;;;;;17.74;100.00;98901.47;4808780;29;20069;-70
2023/08/01 04:31:42;;;;;;;2.33;0.50;;;;;;;17.80;100.00;98898.16;4809926;29;20460;-71
2023/08/01 04:34:45;;;;;;;0.90;0.20;;;;;;;17.56;100.00;98906.06;4804845;29;20077;-71
2023/08/01 04:37:49;;;;;;;5.22;0.43;;;;;;;17.61;100.00;98901.09;4804084;29;20157;-71
2023/08/01 04:40:52;;;;;;;2.47;0.30;;;;;;;17.66;100.00;98902.25;4804434;29;20112;-70
2023/08/01 04:43:55;;;;;;;2.85;0.63;;;;;;;17.66;100.00;98918.13;4804542;29;20061;-70
2023/08/01 04:46:58;;;;;;;1.73;0.35;;;;;;;17.66;100.00;98931.34;4803686;29;20053;-71
2023/08/01 04:50:02;;;;;;;2.25;0.47;;;;;;;17.73;100.00;98920.09;4803209;29;20046;-70
2023/08/01 04:53:06;;;;;;;2.45;0.38;;;;;;;17.73;100.00;98920.94;4804653;29;20440;-70
2023/08/01 04:56:09;;;;;;;2.63;0.40;;;;;;;17.78;100.00;98928.41;4806915;29;20100;-69
2023/08/01 04:59:12;;;;;;;1.40;0.30;;;;;;;17.67;100.00;98929.50;4806637;29;20171;-72
2023/08/01 05:02:15;;;;;;;2.08;0.40;;;;;;;17.75;100.00;98926.88;4806649;29;20057;-71
2023/08/01 05:05:47;;;;;;;1.92;0.25;;;;;;;17.74;100.00;98938.47;4804820;29;20852;-70
2023/08/01 05:08:50;;;;;;;2.20;0.20;;;;;;;17.77;100.00;98942.59;4804156;29;20424;-71
2023/08/01 05:11:53;;;;;;;2.38;0.30;;;;;;;17.74;100.00;98953.47;4804654;29;20061;-71
2023/08/01 05:14:57;;;;;;;2.80;0.30;;;;;;;17.77;100.00;98972.53;4804309;29;20085;-71
2023/08/01 05:18:00;;;;;;;1.98;0.20;;;;;;;17.73;100.00;98975.63;4804154;29;20120;-71
2023/08/01 05:21:04;;;;;;;1.83;0.40;;;;;;;17.46;100.00;98982.84;4806456;29;20062;-71
2023/08/01 05:24:07;;;;;;;1.25;0.30;;;;;;;17.49;100.00;98987.00;4805670;29;20506;-71
2023/08/01 05:27:10;;;;;;;2.60;0.30;;;;;;;17.42;99.53;98998.22;4806432;29;20057;-71
2023/08/01 05:30:13;;;;;;;1.52;0.50;;;;;;;17.25;97.28;99001.78;4806485;29;20184;-71
2023/08/01 05:33:20;;;;;;;4.10;0.77;;;;;;;17.00;97.06;99010.59;4806265;29;20449;-71
2023/08/01 05:36:23;;;;;;;2.15;0.65;;;;;;;16.98;99.44;99008.13;4805061;29;20423;-71
2023/08/01 05:39:26;;;;;;;3.03;0.60;;;;;;;16.76;99.62;99013.94;4805760;29;20107;-71
2023/08/01 05:42:33;;;;;;;2.40;0.80;;;;;;;16.95;99.88;99017.19;4815398;29;20050;-71
2023/08/01 05:45:41;;;;;;;2.97;0.70;;;;;;;17.12;97.67;99011.97;4805570;29;20118;-71
2023/08/01 05:48:44;;;;;;;2.13;0.60;;;;;;;17.17;97.02;99026.34;4804436;29;20053;-71
2023/08/01 05:51:47;;;;;;;6.07;0.77;;;;;;;17.27;96.59;99026.22;4805106;29;20433;-71
2023/08/01 05:54:50;;;;;;;7.57;1.30;;;;;;;17.34;96.80;99043.09;4804612;29;20057;-71
2023/08/01 06:01:48;;;;;;;4.10;0.90;;;;;;;17.39;98.56;99040.81;4805387;29;20585;-71
2023/08/01 06:04:51;;;;;;;2.67;0.95;;;;;;;17.19;94.88;99049.97;4804954;29;20071;-71
2023/08/01 06:07:54;;;;;;;2.03;0.77;;;;;;;17.03;94.41;99037.50;4805805;29;20062;-72
2023/08/01 06:10:58;;;;;;;4.43;0.88;;;;;;;17.22;95.11;99041.72;4805972;29;20054;-71
2023/08/01 06:14:01;;;;;;;5.05;0.60;;;;;;;17.31;92.82;99037.31;4806137;29;20055;-71
2023/08/01 06:17:04;;;;;;;5.28;0.93;;;;;;;17.38;91.94;99043.59;4805913;29;20073;-71
2023/08/01 06:20:08;;;;;;;4.50;1.00;;;;;;;17.40;91.87;99050.38;4805332;29;20463;-70
2023/08/01 06:23:12;;;;;;;2.10;0.95;;;;;;;17.46;94.67;99056.03;4805601;29;20142;-70
2023/08/01 06:26:15;;;;;;;4.90;1.10;;;;;;;17.55;95.44;99061.16;4805383;29;20062;-70
2023/08/01 06:29:18;;;;;;;9.02;1.30;;;;;;;17.55;96.31;99057.69;4805643;29;20058;-71
2023/08/01 06:32:22;;;;;;;2.58;0.70;;;;;;;17.23;93.29;99056.59;4804739;29;20046;-71
2023/08/01 06:35:26;;;;;;;2.88;0.70;;;;;;;17.10;89.68;99050.91;4805298;29;20188;-70
2023/08/01 06:38:54;;;;;;;2.58;0.90;;;;;;;17.34;91.11;99048.38;4804713;29;20104;-70
2023/08/01 06:41:57;;;;;;;3.00;1.05;;;;;;;17.26;91.56;99052.78;4805261;29;20041;-70
2023/08/01 06:45:01;;;;;;;3.20;1.00;;;;;;;17.30;92.45;99060.25;4804297;29;20050;-70
2023/08/01 06:48:08;;;;;;;7.82;1.38;;;;;;;17.38;94.95;99054.16;4805385;29;20049;-71
2023/08/01 06:51:12;;;;;;;6.53;1.20;;;;;;;17.34;96.28;99069.50;4805171;29;20049;-70
2023/08/01 06:54:15;;;;;;;7.18;1.40;;;;;;;17.10;93.75;99080.81;4805071;29;20062;-72
2023/08/01 06:57:18;;;;;;;2.10;1.00;;;;;;;17.25;94.44;99085.47;4805343;29;20073;-70
2023/08/01 07:00:24;;;;;;;6.03;0.90;;;;;;;17.15;92.63;99085.59;4805101;29;20116;-70
2023/08/01 07:03:27;;;;;;;4.75;1.00;;;;;;;16.97;88.94;99085.66;4804435;29;20104;-70
2023/08/01 07:06:30;;;;;;;3.45;1.30;;;;;;;17.04;93.23;99088.50;4820439;29;20100;-70
2023/08/01 07:09:34;;;;;;;2.53;1.02;;;;;;;17.04;92.06;99085.84;4823695;29;20116;-70
2023/08/01 07:12:37;;;;;;;3.63;0.93;;;;;;;16.86;92.72;99081.47;4823351;29;20045;-69
2023/08/01 07:15:40;;;;;;;4.95;1.35;;;;;;;16.89;94.82;99088.25;4822243;29;20041;-70
2023/08/01 07:18:44;;;;;;;3.28;1.10;;;;;;;17.06;93.19;99087.38;4823019;29;20069;-70
2023/08/01 07:21:48;;;;;;;2.63;0.98;;;;;;;17.16;91.67;99092.53;4823097;29;20081;-71
2023/08/01 07:24:55;;;;;;;2.95;1.00;;;;;;;17.21;90.00;99100.81;4823135;29;20524;-70
2023/08/01 07:27:58;;;;;;;4.65;1.50;;;;;;;17.39;87.95;99100.75;4836585;29;20416;-70
2023/08/01 07:31:07;;;;;;;3.72;0.90;;;;;;;17.34;88.12;99108.31;4839314;29;20542;-69
2023/08/01 07:34:10;;;;;;;2.50;1.10;;;;;;;17.35;88.40;99120.53;4840797;29;20053;-71
2023/08/01 07:37:13;;;;;;;2.58;1.13;;;;;;;17.41;88.06;99123.38;4840942;29;20049;-69
2023/08/01 07:40:17;;;;;;;3.58;1.02;;;;;;;17.36;87.54;99124.84;4840847;29;20447;-70
2023/08/01 07:43:21;;;;;;;4.70;1.10;;;;;;;17.48;88.81;99134.13;4832496;29;20045;-71
2023/08/01 07:46:24;;;;;;;3.75;1.10;;;;;;;17.38;85.73;99128.97;4830868;29;20535;-71
2023/08/01 07:49:27;;;;;;;2.80;1.23;;;;;;;17.40;86.39;99129.66;4831451;29;20138;-69
2023/08/01 07:52:30;;;;;;;7.35;1.60;;;;;;;17.41;87.23;99130.47;4832047;29;20467;-72
2023/08/01 07:55:34;;;;;;;4.13;1.25;;;;;;;17.73;86.37;99134.25;4828259;29;20068;-73
2023/08/01 07:58:38;;;;;;;6.00;1.90;;;;;;;17.84;82.80;99134.81;4828380;29;20094;-71
2023/08/01 08:01:42;;;;;;;3.72;1.40;;;;;;;17.98;83.73;99137.81;4829744;29;20092;-72
2023/08/01 08:04:45;;;;;;;4.47;1.50;;;;;;;18.21;81.44;99138.84;4840659;29;20488;-72
2023/08/01 08:07:49;;;;;;;6.40;1.75;;;;;;;18.37;79.60;99132.75;4831587;29;20068;-72
2023/08/01 08:10:52;;;;;;;6.30;1.55;;;;;;;18.43;77.89;99136.56;4830014;29;20121;-73
2023/08/01 08:13:59;;;;;;;4.28;1.70;;;;;;;18.47;76.03;99143.19;4828570;29;20126;-73
2023/08/01 08:17:03;;;;;;;2.78;1.10;;;;;;;18.47;74.99;99137.88;4841533;29;20099;-73
2023/08/01 08:20:07;;;;;;;5.45;1.60;;;;;;;18.63;76.37;99135.25;4830717;29;20052;-73
2023/08/01 08:23:59;;;;;;;3.78;1.77;;;;;;;18.71;75.61;99126.47;4830432;29;20410;-72
2023/08/01 08:27:04;;;;;;;3.90;1.50;;;;;;;18.45;74.23;99137.25;4809218;29;20083;-72
2023/08/01 08:30:31;;;;;;;5.80;1.83;;;;;;;18.53;77.70;99148.63;4835334;29;20089;-73
2023/08/01 08:33:38;;;;;;;3.63;1.42;;;;;;;18.59;78.17;99140.03;4807707;29;20116;-74
2023/08/01 08:42:11;;;;;;;3.17;1.33;;;;;;;18.15;79.08;99144.78;4812962;29;20396;-72
2023/08/01 08:45:41;;;;;;;3.75;1.40;;;;;;;18.07;77.78;99155.38;4833976;29;20057;-71
2023/08/01 08:48:46;;;;;;;4.57;1.50;;;;;;;18.15;79.90;99152.72;4833946;29;20065;-70
2023/08/01 08:51:50;;;;;;;4.68;1.42;;;;;;;18.30;80.20;99145.00;4828571;29;20120;-70
2023/08/01 08:54:55;;;;;;;3.63;1.33;;;;;;;18.24;81.00;99143.81;4833091;29;20160;-70
2023/08/01 08:57:59;;;;;;;10.63;2.05;;;;;;;18.40;81.68;99150.13;4819475;29;20053;-71
2023/08/01 09:01:03;;;;;;;3.28;1.40;;;;;;;18.44;83.20;99147.00;4841688;29;20118;-70
2023/08/01 09:04:07;;;;;;;5.20;1.50;;;;;;;18.32;80.48;99157.06;4827219;29;20083;-69
2023/08/01 09:07:15;;;;;;;5.30;1.80;;;;;;;18.19;79.16;99159.38;4829612;29;20085;-71
2023/08/01 09:10:18;;;;;;;2.40;1.17;;;;;;;18.32;74.87;99170.31;4829902;29;20510;-72
2023/08/01 09:13:23;;;;;;;4.40;1.65;;;;;;;18.38;74.20;99154.75;4834757;29;20045;-71
2023/08/01 09:16:27;;;;;;;3.70;1.83;;;;;;;18.31;70.71;99152.78;4833795;29;20084;-71
2023/08/01 09:19:30;;;;;;;2.80;1.30;;;;;;;18.47;73.03;99164.34;4830981;29;20540;-72
2023/08/01 09:22:45;;;;;;;6.07;1.65;;;;;;;18.33;70.09;99166.66;4831774;29;20458;-71
2023/08/01 09:25:51;;;;;;;4.57;1.50;;;;;;;18.29;70.50;99161.88;4835501;29;20119;-71
2023/08/01 09:28:57;;;;;;;3.67;1.65;;;;;;;18.31;69.52;99163.38;4833566;29;20179;-72
2023/08/01 09:32:12;;;;;;;4.45;1.83;;;;;;;18.49;68.84;99191.50;4834276;29;20118;-71
2023/08/01 09:35:21;;;;;;;2.75;1.60;;;;;;;18.54;67.44;99160.06;4828241;29;20527;-71
2023/08/01 09:38:33;;;;;;;3.55;1.60;;;;;;;18.66;66.03;99158.72;4822113;29;20140;-71
2023/08/01 09:41:37;;;;;;;4.07;1.67;;;;;;;19.00;66.77;99157.78;4832279;29;20061;-71
2023/08/01 09:44:46;;;;;;;4.80;2.35;;;;;;;19.11;65.33;99154.75;4832888;29;20080;-70
2023/08/01 09:47:49;;;;;;;4.88;1.70;;;;;;;19.18;66.55;99157.59;4829941;29;20049;-70
2023/08/01 09:51:13;;;;;;;5.47;1.92;;;;;;;18.81;65.42;99170.34;4831618;29;20052;-70
2023/08/01 09:54:22;;;;;;;5.70;2.13;;;;;;;18.54;68.98;99186.56;4831627;29;20104;-70
2023/08/01 09:57:43;;;;;;;5.57;2.05;;;;;;;18.31;71.22;99189.81;4832086;29;20049;-73
2023/08/01 10:00:50;;;;;;;3.90;1.70;;;;;;;17.98;72.90;99196.00;4831322;29;20100;-72
2023/08/01 10:03:56;;;;;;;6.80;1.83;;;;;;;17.94;74.84;99187.56;4832327;29;20077;-74
2023/08/01 10:07:11;;;;;;;6.20;1.63;;;;;;;18.26;73.75;99192.13;4832992;29;20107;-74
2023/08/01 10:10:16;;;;;;;6.53;1.77;;;;;;;18.63;72.78;99193.47;4832620;29;20184;-72
2023/08/01 10:13:22;;;;;;;6.30;1.90;;;;;;;18.84;71.15;99185.09;4833655;29;20228;-71
2023/08/01 10:16:32;;;;;;;5.57;1.90;;;;;;;19.18;69.93;99181.44;4829100;29;20049;-72
2023/08/01 10:19:35;;;;;;;7.78;2.00;;;;;;;19.22;70.29;99185.38;4831613;29;20064;-73
2023/08/01 10:22:40;;;;;;;5.72;2.47;;;;;;;19.20;69.18;99182.91;4832714;29;20130;-72
2023/08/01 10:25:48;;;;;;;4.93;2.45;;;;;;;19.21;69.89;99192.53;4831443;29;20064;-73
2023/08/01 10:28:52;;;;;;;3.97;1.70;;;;;;;18.92;69.65;99189.53;4818255;29;20085;-72
2023/08/01 10:31:56;;;;;;;4.97;1.73;;;;;;;19.04;71.67;99190.88;4834748;29;20548;-71
2023/08/01 10:34:59;;;;;;;4.55;2.10;;;;;;;19.22;73.95;99188.88;4832874;29;20044;-71
2023/08/01 10:38:05;;;;;;;4.60;1.80;;;;;;;19.31;77.57;99189.69;4821449;29;20048;-67
2023/08/01 10:41:46;;;;;;;4.65;1.90;;;;;;;19.50;74.33;99186.66;4829610;29;20045;-70
2023/08/01 10:44:51;;;;;;;4.35;1.42;;;;;;;19.81;71.57;99171.81;4836228;29;20073;-71
2023/08/01 10:48:06;;;;;;;7.75;2.20;;;;;;;19.99;68.14;99175.03;4830568;29;20450;-71
2023/08/01 10:51:10;;;;;;;4.28;1.55;;;;;;;19.95;66.52;99185.19;4830048;29;20554;-71
2023/08/01 10:54:25;;;;;;;3.65;1.20;;;;;;;19.67;64.20;99213.97;4831240;29;20048;-72
2023/08/01 10:57:34;;;;;;;3.67;1.13;;;;;;;19.47;63.88;99212.69;4832880;29;20083;-70
2023/08/01 11:00:38;;;;;;;4.03;1.73;;;;;;;19.10;66.13;99222.00;4830738;29;20164;-69
2023/08/01 11:03:41;;;;;;;3.38;1.40;;;;;;;18.73;68.82;99214.53;4834415;29;20060;-69
2023/08/01 11:06:46;;;;;;;4.00;1.75;;;;;;;18.80;68.74;99219.03;4832845;29;20073;-69
2023/08/01 11:09:49;;;;;;;5.53;1.77;;;;;;;18.87;68.30;99205.13;4841117;29;20107;-69
2023/08/01 11:12:53;;;;;;;4.47;1.48;;;;;;;19.27;68.47;99205.09;4839938;29;20142;-69
2023/08/01 11:15:57;;;;;;;4.38;2.08;;;;;;;19.32;66.93;99209.06;4823236;29;20053;-69
2023/08/01 11:19:01;;;;;;;2.75;1.15;;;;;;;19.32;67.64;99212.53;4822587;29;20044;-68
2023/08/01 11:22:09;;;;;;;3.85;1.35;;;;;;;19.39;67.50;99218.81;4832352;29;20141;-70
2023/08/01 11:25:13;;;;;;;4.20;1.38;;;;;;;19.53;68.15;99222.59;4841489;29;20130;-71
2023/08/01 11:28:17;;;;;;;4.25;1.73;;;;;;;19.70;66.71;99226.88;4830454;29;20072;-70
2023/08/01 11:31:21;;;;;;;6.78;2.72;;;;;;;19.48;66.80;99222.28;4827358;29;20072;-70
2023/08/01 11:34:26;;;;;;;6.45;1.75;;;;;;;19.54;66.82;99236.69;4827540;29;20045;-68
2023/08/01 11:37:30;;;;;;;4.72;1.67;;;;;;;19.41;66.70;99234.56;4822976;29;20053;-68
2023/08/01 11:40:34;;;;;;;4.30;1.60;;;;;;;19.45;67.52;99230.56;4822253;29;20057;-68
2023/08/01 11:43:43;;;;;;;3.05;1.63;;;;;;;19.59;66.54;99221.94;4823001;29;20076;-68
2023/08/01 11:46:46;;;;;;;4.40;1.42;;;;;;;19.71;64.38;99220.56;4823151;29;20053;-68
2023/08/01 11:49:51;;;;;;;3.70;1.38;;;;;;;19.86;62.96;99214.56;4823647;29;20100;-70
2023/08/01 11:52:54;;;;;;;5.10;1.85;;;;;;;19.84;63.06;99214.72;4823063;29;20115;-70
2023/08/01 11:55:58;;;;;;;4.65;1.30;;;;;;;19.73;61.75;99223.06;4804840;29;20042;-68
2023/08/01 11:59:11;;;;;;;4.50;1.33;;;;;;;20.02;63.17;99227.75;4815201;29;20480;-69
2023/08/01 12:02:29;;;;;;;11.60;2.17;;;;;;;20.06;62.78;99255.59;4822381;29;20053;-71
2023/08/01 12:05:37;;;;;;;3.25;1.20;;;;;;;19.89;59.70;99251.38;4804693;29;20050;-70
2023/08/01 12:08:44;;;;;;;4.13;1.35;;;;;;;19.64;61.11;99250.59;4804737;29;20139;-70
2023/08/01 12:11:59;;;;;;;3.67;1.25;;;;;;;19.50;61.27;99244.16;4804761;29;20095;-69
2023/08/01 12:15:03;;;;;;;3.55;1.27;;;;;;;19.39;62.49;99255.09;4804555;29;20104;-69
2023/08/01 12:18:07;;;;;;;2.83;1.00;;;;;;;19.48;62.62;99241.66;4804889;29;20066;-70
2023/08/01 12:21:11;;;;;;;3.70;1.35;;;;;;;19.50;61.73;99228.25;4817473;29;20533;-70
2023/08/01 12:24:14;;;;;;;3.92;1.30;;;;;;;19.65;60.17;99231.84;4820302;29;20179;-70
2023/08/01 12:27:25;;;;;;;4.57;1.48;;;;;;;19.88;58.81;99241.75;4819544;29;20073;-70
2023/08/01 12:30:29;;;;;;;5.30;1.73;;;;;;;19.94;59.80;99241.06;4823051;29;20074;-71
2023/08/01 12:33:34;;;;;;;5.97;1.65;;;;;;;20.05;59.65;99227.41;4823056;29;20069;-70
2023/08/01 12:36:38;;;;;;;5.22;1.77;;;;;;;20.40;59.04;99226.06;4804461;29;20148;-70
2023/08/01 12:39:42;;;;;;;5.00;1.80;;;;;;;20.73;58.52;99215.25;4803805;29;20128;-69
2023/08/01 12:42:46;;;;;;;4.60;1.15;;;;;;;20.78;58.32;99238.66;4822699;29;20437;-69
2023/08/01 12:45:50;;;;;;;3.63;1.48;;;;;;;20.56;59.15;99235.81;4832094;29;20064;-69
2023/08/01 12:48:53;;;;;;;5.75;2.40;;;;;;;20.41;60.59;99242.81;4827747;29;20106;-70
2023/08/01 12:51:57;;;;;;;4.30;1.90;;;;;;;19.98;63.15;99267.09;4830763;29;20045;-70
2023/08/01 12:55:01;;;;;;;4.13;1.80;;;;;;;19.73;64.97;99268.16;4829898;29;20469;-70
2023/08/01 12:58:07;;;;;;;6.03;2.10;;;;;;;19.48;68.87;99285.91;4830423;29;20063;-70
2023/08/01 13:01:10;;;;;;;4.82;1.88;;;;;;;19.20;68.61;99267.69;4817827;29;20054;-70
2023/08/01 13:04:14;;;;;;;5.88;2.13;;;;;;;19.60;69.15;99260.69;4812099;29;20096;-69
2023/08/01 13:07:17;;;;;;;6.95;2.10;;;;;;;20.11;70.75;99263.88;4810640;29;20050;-69
2023/08/01 13:10:21;;;;;;;5.35;1.60;;;;;;;20.44;68.43;99271.69;4811171;29;20073;-69
2023/08/01 13:13:25;;;;;;;5.32;2.40;;;;;;;20.80;66.93;99265.84;4808339;29;20089;-71
2023/08/01 13:16:30;;;;;;;8.73;1.80;;;;;;;21.23;65.55;99268.84;4806777;29;20057;-70
2023/08/01 13:19:33;;;;;;;5.10;1.73;;;;;;;21.13;63.76;99269.94;4806899;29;20093;-70
2023/08/01 13:22:36;;;;;;;5.13;1.90;;;;;;;21.60;63.01;99270.69;4806807;29;20480;-71
2023/08/01 13:25:46;;;;;;;5.28;1.52;;;;;;;21.50;61.72;99278.91;4806855;29;20058;-69
2023/08/01 13:28:49;;;;;;;5.65;1.73;;;;;;;21.20;62.46;99269.22;4806286;29;20176;-71
2023/08/01 13:31:53;;;;;;;5.63;1.55;;;;;;;21.08;61.00;99274.94;4806305;29;20112;-69
2023/08/01 13:34:58;;;;;;;3.78;1.60;;;;;;;21.17;61.07;99274.88;4806334;29;20056;-68
2023/08/01 13:38:05;;;;;;;5.40;1.65;;;;;;;20.94;61.26;99274.91;4806066;29;20122;-70
2023/08/01 13:41:08;;;;;;;6.75;1.70;;;;;;;20.77;62.89;99292.75;4806356;29;20638;-68
2023/08/01 13:44:15;;;;;;;6.50;1.63;;;;;;;20.48;64.61;99293.41;4806862;29;20464;-68
2023/08/01 13:47:19;;;;;;;6.95;1.85;;;;;;;19.92;66.09;99301.44;4802941;29;20093;-69
2023/08/01 13:50:22;;;;;;;8.40;1.60;;;;;;;19.87;66.97;99298.44;4802294;29;20123;-70
2023/08/01 13:53:26;;;;;;;6.63;1.67;;;;;;;19.79;68.86;99306.44;4806382;29;20113;-69
2023/08/01 13:56:29;;;;;;;4.55;1.90;;;;;;;19.88;70.34;99319.50;4787754;29;20128;-69
2023/08/01 13:59:32;;;;;;;5.95;1.35;;;;;;;20.30;71.30;99314.91;4788015;29;20058;-72
2023/08/01 14:02:36;;;;;;;5.75;1.90;;;;;;;20.74;70.78;99311.72;4804392;29;20132;-72
2023/08/01 14:05:44;;;;;;;6.10;1.60;;;;;;;20.76;69.43;99320.34;4800535;29;20509;-72
2023/08/01 14:08:49;;;;;;;4.43;1.40;;;;;;;20.43;67.27;99320.50;4791584;29;20061;-72
2023/08/01 14:11:53;;;;;;;3.85;1.42;;;;;;;21.17;65.49;99318.25;4803826;29;20512;-72
2023/08/01 14:14:56;;;;;;;3.28;1.55;;;;;;;21.84;62.12;99317.50;4805170;29;20058;-69
2023/08/01 14:17:59;;;;;;;3.63;1.15;;;;;;;23.24;56.87;99298.72;4787791;29;20050;-72
2023/08/01 14:21:04;;;;;;;3.72;1.20;;;;;;;24.78;50.88;99303.94;4787489;29;20402;-70
2023/08/01 14:24:08;;;;;;;8.10;1.63;;;;;;;26.00;47.73;99310.78;4786593;29;20467;-72
2023/08/01 14:27:11;;;;;;;3.88;1.38;;;;;;;26.31;46.30;99319.97;4787625;29;20113;-72
2023/08/01 14:30:14;;;;;;;5.22;1.45;;;;;;;25.08;50.06;99317.78;4789580;29;20497;-71
2023/08/01 14:33:20;;;;;;;2.70;1.10;;;;;;;23.34;54.39;99320.53;4793971;29;20155;-72
2023/08/01 14:36:23;;;;;;;5.32;1.42;;;;;;;22.35;57.59;99320.28;4805476;29;20120;-71